sensor_id;sensor_type;location;lat;lon;timestamp;P1;durP1;ratioP1;P2;durP2;ratioP2
69991;SDS011;57332;51.320;-0.580;2023-02-28T00:00:09;5.78;;;1.83;;
69991;SDS011;57332;51.320;-0.580;2023-02-28T00:02:40;3.05;;;1.50;;
69991;SDS011;57332;51.320;-0.580;2023-02-28T00:05:07;3.08;;;1.60;;
69991;SDS011;57332;51.320;-0.580;2023-02-28T00:07:35;2.95;;;1.58;;
69991;SDS011;57332;51.320;-0.580;2023-02-28T00:10:02;2.50;;;1.23;;
69991;SDS011;57332;51.320;-0.580;2023-02-28T00:12:29;4.28;;;1.65;;
69991;SDS011;57332;51.320;-0.580;2023-02-28T00:14:56;4.20;;;2.10;;
69991;SDS011;57332;51.320;-0.580;2023-02-28T00:17:23;3.88;;;1.60;;
69991;SDS011;57332;51.320;-0.580;2023-02-28T00:19:50;3.90;;;1.52;;
69991;SDS011;57332;51.320;-0.580;2023-02-28T00:22:18;4.97;;;1.67;;
69991;SDS011;57332;51.320;-0.580;2023-02-28T00:24:45;6.80;;;2.08;;
69991;SDS011;57332;51.320;-0.580;2023-02-28T00:27:12;3.20;;;1.73;;
69991;SDS011;57332;51.320;-0.580;2023-02-28T00:29:39;4.90;;;1.90;;
69991;SDS011;57332;51.320;-0.580;2023-02-28T00:32:06;4.32;;;1.80;;
69991;SDS011;57332;51.320;-0.580;2023-02-28T00:34:33;4.25;;;1.95;;
69991;SDS011;57332;51.320;-0.580;2023-02-28T00:37:05;5.15;;;1.80;;
69991;SDS011;57332;51.320;-0.580;2023-02-28T00:39:35;5.40;;;1.73;;
69991;SDS011;57332;51.320;-0.580;2023-02-28T00:42:03;3.90;;;1.90;;
69991;SDS011;57332;51.320;-0.580;2023-02-28T00:44:30;7.72;;;1.60;;
69991;SDS011;57332;51.320;-0.580;2023-02-28T00:46:57;5.30;;;1.80;;
69991;SDS011;57332;51.320;-0.580;2023-02-28T00:49:24;4.63;;;2.17;;
69991;SDS011;57332;51.320;-0.580;2023-02-28T00:51:52;5.88;;;2.00;;
69991;SDS011;57332;51.320;-0.580;2023-02-28T00:54:19;4.75;;;1.98;;
69991;SDS011;57332;51.320;-0.580;2023-02-28T00:56:46;6.15;;;1.90;;
69991;SDS011;57332;51.320;-0.580;2023-02-28T00:59:14;3.72;;;1.70;;
69991;SDS011;57332;51.320;-0.580;2023-02-28T01:01:41;4.18;;;1.70;;
69991;SDS011;57332;51.320;-0.580;2023-02-28T01:04:08;5.13;;;1.60;;
69991;SDS011;57332;51.320;-0.580;2023-02-28T01:06:35;4.93;;;1.83;;
69991;SDS011;57332;51.320;-0.580;2023-02-28T01:09:03;4.05;;;1.63;;
69991;SDS011;57332;51.320;-0.580;2023-02-28T01:11:30;4.80;;;1.65;;
69991;SDS011;57332;51.320;-0.580;2023-02-28T01:13:57;2.97;;;1.52;;
69991;SDS011;57332;51.320;-0.580;2023-02-28T01:16:24;4.07;;;1.60;;
69991;SDS011;57332;51.320;-0.580;2023-02-28T01:18:52;4.65;;;1.70;;
69991;SDS011;57332;51.320;-0.580;2023-02-28T01:21:19;3.70;;;1.70;;
69991;SDS011;57332;51.320;-0.580;2023-02-28T01:23:47;6.53;;;2.00;;
69991;SDS011;57332;51.320;-0.580;2023-02-28T01:26:18;4.60;;;1.90;;
69991;SDS011;57332;51.320;-0.580;2023-02-28T01:28:45;5.05;;;1.58;;
69991;SDS011;57332;51.320;-0.580;2023-02-28T01:31:13;4.00;;;1.52;;
69991;SDS011;57332;51.320;-0.580;2023-02-28T01:33:40;7.28;;;1.90;;
69991;SDS011;57332;51.320;-0.580;2023-02-28T01:36:09;3.20;;;1.60;;
69991;SDS011;57332;51.320;-0.580;2023-02-28T01:38:36;2.60;;;1.52;;
69991;SDS011;57332;51.320;-0.580;2023-02-28T01:41:04;6.18;;;1.70;;
69991;SDS011;57332;51.320;-0.580;2023-02-28T01:43:32;4.28;;;1.83;;
69991;SDS011;57332;51.320;-0.580;2023-02-28T01:46:18;4.13;;;1.95;;
69991;SDS011;57332;51.320;-0.580;2023-02-28T01:48:51;5.53;;;1.70;;
69991;SDS011;57332;51.320;-0.580;2023-02-28T01:51:26;3.33;;;1.80;;
69991;SDS011;57332;51.320;-0.580;2023-02-28T01:53:57;4.88;;;2.22;;
69991;SDS011;57332;51.320;-0.580;2023-02-28T01:56:29;4.85;;;1.80;;
69991;SDS011;57332;51.320;-0.580;2023-02-28T02:01:24;4.00;;;1.70;;
69991;SDS011;57332;51.320;-0.580;2023-02-28T02:03:54;3.40;;;1.52;;
69991;SDS011;57332;51.320;-0.580;2023-02-28T02:06:25;6.10;;;2.10;;
69991;SDS011;57332;51.320;-0.580;2023-02-28T02:08:54;4.75;;;1.98;;
69991;SDS011;57332;51.320;-0.580;2023-02-28T02:11:21;4.63;;;2.17;;
69991;SDS011;57332;51.320;-0.580;2023-02-28T02:22:07;7.47;;;2.03;;
69991;SDS011;57332;51.320;-0.580;2023-02-28T02:27:23;7.93;;;2.10;;
69991;SDS011;57332;51.320;-0.580;2023-02-28T02:40:22;4.50;;;1.77;;
69991;SDS011;57332;51.320;-0.580;2023-02-28T02:47:50;4.05;;;2.10;;
69991;SDS011;57332;51.320;-0.580;2023-02-28T02:50:29;4.10;;;2.15;;
69991;SDS011;57332;51.320;-0.580;2023-02-28T02:52:57;5.78;;;2.20;;
69991;SDS011;57332;51.320;-0.580;2023-02-28T02:55:25;7.13;;;2.00;;
69991;SDS011;57332;51.320;-0.580;2023-02-28T02:57:59;5.10;;;1.83;;
69991;SDS011;57332;51.320;-0.580;2023-02-28T03:00:30;4.85;;;2.08;;
69991;SDS011;57332;51.320;-0.580;2023-02-28T03:02:58;4.75;;;1.73;;
69991;SDS011;57332;51.320;-0.580;2023-02-28T03:05:26;4.40;;;1.92;;
69991;SDS011;57332;51.320;-0.580;2023-02-28T03:07:53;3.72;;;1.88;;
69991;SDS011;57332;51.320;-0.580;2023-02-28T03:10:27;6.13;;;2.50;;
69991;SDS011;57332;51.320;-0.580;2023-02-28T03:13:00;4.95;;;1.73;;
69991;SDS011;57332;51.320;-0.580;2023-02-28T03:15:29;5.75;;;2.05;;
69991;SDS011;57332;51.320;-0.580;2023-02-28T03:18:01;3.90;;;1.90;;
69991;SDS011;57332;51.320;-0.580;2023-02-28T03:20:35;6.47;;;2.00;;
69991;SDS011;57332;51.320;-0.580;2023-02-28T03:23:19;6.35;;;2.40;;
69991;SDS011;57332;51.320;-0.580;2023-02-28T03:25:56;8.23;;;2.42;;
69991;SDS011;57332;51.320;-0.580;2023-02-28T03:31:19;4.88;;;2.10;;
69991;SDS011;57332;51.320;-0.580;2023-02-28T03:33:51;4.50;;;1.80;;
69991;SDS011;57332;51.320;-0.580;2023-02-28T03:36:22;4.13;;;2.17;;
69991;SDS011;57332;51.320;-0.580;2023-02-28T03:38:52;5.28;;;2.20;;
69991;SDS011;57332;51.320;-0.580;2023-02-28T03:41:22;6.93;;;2.08;;
69991;SDS011;57332;51.320;-0.580;2023-02-28T03:44:13;9.32;;;2.00;;
69991;SDS011;57332;51.320;-0.580;2023-02-28T03:46:37;4.35;;;1.90;;
69991;SDS011;57332;51.320;-0.580;2023-02-28T03:49:09;5.45;;;2.15;;
69991;SDS011;57332;51.320;-0.580;2023-02-28T03:51:39;6.85;;;2.40;;
69991;SDS011;57332;51.320;-0.580;2023-02-28T03:54:08;5.97;;;1.95;;
69991;SDS011;57332;51.320;-0.580;2023-02-28T03:56:38;5.05;;;2.00;;
69991;SDS011;57332;51.320;-0.580;2023-02-28T03:59:20;7.53;;;2.33;;
69991;SDS011;57332;51.320;-0.580;2023-02-28T04:01:48;4.38;;;2.20;;
69991;SDS011;57332;51.320;-0.580;2023-02-28T04:04:16;6.18;;;2.30;;
69991;SDS011;57332;51.320;-0.580;2023-02-28T04:06:43;5.00;;;2.33;;
69991;SDS011;57332;51.320;-0.580;2023-02-28T04:09:12;6.65;;;2.28;;
69991;SDS011;57332;51.320;-0.580;2023-02-28T04:11:38;7.22;;;2.30;;
69991;SDS011;57332;51.320;-0.580;2023-02-28T04:14:06;3.95;;;2.00;;
69991;SDS011;57332;51.320;-0.580;2023-02-28T04:16:34;11.30;;;2.83;;
69991;SDS011;57332;51.320;-0.580;2023-02-28T04:19:02;5.82;;;2.13;;
69991;SDS011;57332;51.320;-0.580;2023-02-28T04:21:36;4.50;;;2.38;;
69991;SDS011;57332;51.320;-0.580;2023-02-28T04:24:06;5.43;;;2.92;;
69991;SDS011;57332;51.320;-0.580;2023-02-28T04:26:33;7.32;;;2.40;;
69991;SDS011;57332;51.320;-0.580;2023-02-28T04:29:00;4.82;;;2.67;;
69991;SDS011;57332;51.320;-0.580;2023-02-28T04:31:27;5.53;;;2.20;;
69991;SDS011;57332;51.320;-0.580;2023-02-28T04:33:55;5.63;;;2.10;;
69991;SDS011;57332;51.320;-0.580;2023-02-28T04:36:22;7.18;;;2.33;;
69991;SDS011;57332;51.320;-0.580;2023-02-28T04:38:49;9.07;;;2.53;;
69991;SDS011;57332;51.320;-0.580;2023-02-28T04:41:16;6.05;;;2.13;;
69991;SDS011;57332;51.320;-0.580;2023-02-28T04:43:43;6.38;;;2.28;;
69991;SDS011;57332;51.320;-0.580;2023-02-28T04:46:10;6.07;;;2.40;;
69991;SDS011;57332;51.320;-0.580;2023-02-28T04:48:38;6.10;;;2.65;;
69991;SDS011;57332;51.320;-0.580;2023-02-28T04:51:09;4.13;;;1.90;;
69991;SDS011;57332;51.320;-0.580;2023-02-28T04:53:39;6.20;;;2.53;;
69991;SDS011;57332;51.320;-0.580;2023-02-28T04:56:07;7.05;;;2.47;;
69991;SDS011;57332;51.320;-0.580;2023-02-28T04:58:35;5.22;;;2.55;;
69991;SDS011;57332;51.320;-0.580;2023-02-28T05:01:03;7.95;;;2.47;;
69991;SDS011;57332;51.320;-0.580;2023-02-28T05:03:30;6.47;;;2.83;;
69991;SDS011;57332;51.320;-0.580;2023-02-28T05:05:57;7.35;;;2.95;;
69991;SDS011;57332;51.320;-0.580;2023-02-28T05:08:24;7.15;;;2.33;;
69991;SDS011;57332;51.320;-0.580;2023-02-28T05:10:52;6.45;;;2.70;;
69991;SDS011;57332;51.320;-0.580;2023-02-28T05:13:19;5.32;;;2.35;;
69991;SDS011;57332;51.320;-0.580;2023-02-28T05:15:46;8.25;;;2.47;;
69991;SDS011;57332;51.320;-0.580;2023-02-28T05:18:12;4.40;;;2.28;;
69991;SDS011;57332;51.320;-0.580;2023-02-28T05:20:39;5.00;;;2.38;;
69991;SDS011;57332;51.320;-0.580;2023-02-28T05:23:07;4.55;;;2.38;;
69991;SDS011;57332;51.320;-0.580;2023-02-28T05:25:34;7.35;;;2.22;;
69991;SDS011;57332;51.320;-0.580;2023-02-28T05:28:01;6.30;;;2.63;;
69991;SDS011;57332;51.320;-0.580;2023-02-28T05:30:28;6.78;;;2.20;;
69991;SDS011;57332;51.320;-0.580;2023-02-28T05:32:56;6.25;;;2.70;;
69991;SDS011;57332;51.320;-0.580;2023-02-28T05:35:26;6.05;;;2.42;;
69991;SDS011;57332;51.320;-0.580;2023-02-28T05:37:53;4.55;;;2.38;;
69991;SDS011;57332;51.320;-0.580;2023-02-28T05:40:19;6.00;;;2.65;;
69991;SDS011;57332;51.320;-0.580;2023-02-28T05:42:47;5.47;;;2.83;;
69991;SDS011;57332;51.320;-0.580;2023-02-28T05:45:14;4.85;;;2.53;;
69991;SDS011;57332;51.320;-0.580;2023-02-28T05:47:41;6.30;;;2.75;;
69991;SDS011;57332;51.320;-0.580;2023-02-28T05:50:08;5.03;;;2.53;;
69991;SDS011;57332;51.320;-0.580;2023-02-28T05:52:37;7.75;;;2.80;;
69991;SDS011;57332;51.320;-0.580;2023-02-28T05:55:04;7.72;;;2.80;;
69991;SDS011;57332;51.320;-0.580;2023-02-28T05:57:31;6.90;;;2.22;;
69991;SDS011;57332;51.320;-0.580;2023-02-28T05:59:57;9.75;;;2.45;;
69991;SDS011;57332;51.320;-0.580;2023-02-28T06:02:24;5.88;;;2.40;;
69991;SDS011;57332;51.320;-0.580;2023-02-28T06:04:51;7.70;;;2.97;;
69991;SDS011;57332;51.320;-0.580;2023-02-28T06:07:18;6.57;;;2.40;;
69991;SDS011;57332;51.320;-0.580;2023-02-28T06:09:45;11.80;;;2.80;;
69991;SDS011;57332;51.320;-0.580;2023-02-28T06:12:12;6.00;;;2.60;;
69991;SDS011;57332;51.320;-0.580;2023-02-28T06:14:39;7.65;;;2.75;;
69991;SDS011;57332;51.320;-0.580;2023-02-28T06:17:08;6.18;;;2.55;;
69991;SDS011;57332;51.320;-0.580;2023-02-28T06:19:36;7.47;;;2.55;;
69991;SDS011;57332;51.320;-0.580;2023-02-28T06:22:05;7.53;;;2.78;;
69991;SDS011;57332;51.320;-0.580;2023-02-28T06:24:32;6.47;;;2.25;;
69991;SDS011;57332;51.320;-0.580;2023-02-28T06:26:59;7.43;;;2.65;;
69991;SDS011;57332;51.320;-0.580;2023-02-28T06:29:32;5.88;;;2.45;;
69991;SDS011;57332;51.320;-0.580;2023-02-28T06:31:59;7.88;;;3.05;;
69991;SDS011;57332;51.320;-0.580;2023-02-28T06:34:26;8.02;;;3.15;;
69991;SDS011;57332;51.320;-0.580;2023-02-28T06:36:52;7.35;;;2.78;;
69991;SDS011;57332;51.320;-0.580;2023-02-28T06:39:19;5.57;;;2.28;;
69991;SDS011;57332;51.320;-0.580;2023-02-28T06:41:46;8.48;;;2.97;;
69991;SDS011;57332;51.320;-0.580;2023-02-28T06:44:22;7.38;;;2.78;;
69991;SDS011;57332;51.320;-0.580;2023-02-28T06:46:49;8.13;;;3.08;;
69991;SDS011;57332;51.320;-0.580;2023-02-28T06:49:16;9.00;;;4.28;;
69991;SDS011;57332;51.320;-0.580;2023-02-28T06:51:44;9.02;;;3.83;;
69991;SDS011;57332;51.320;-0.580;2023-02-28T06:54:14;6.65;;;3.03;;
69991;SDS011;57332;51.320;-0.580;2023-02-28T06:56:41;8.32;;;3.38;;
69991;SDS011;57332;51.320;-0.580;2023-02-28T06:59:07;10.20;;;3.00;;
69991;SDS011;57332;51.320;-0.580;2023-02-28T07:01:34;7.38;;;3.20;;
69991;SDS011;57332;51.320;-0.580;2023-02-28T07:04:01;8.10;;;3.33;;
69991;SDS011;57332;51.320;-0.580;2023-02-28T07:06:28;10.38;;;2.80;;
69991;SDS011;57332;51.320;-0.580;2023-02-28T07:08:55;6.35;;;3.22;;
69991;SDS011;57332;51.320;-0.580;2023-02-28T07:11:22;7.97;;;2.85;;
69991;SDS011;57332;51.320;-0.580;2023-02-28T07:13:52;9.48;;;3.22;;
69991;SDS011;57332;51.320;-0.580;2023-02-28T07:16:21;8.30;;;3.88;;
69991;SDS011;57332;51.320;-0.580;2023-02-28T07:18:48;6.70;;;2.88;;
69991;SDS011;57332;51.320;-0.580;2023-02-28T07:21:15;5.47;;;2.63;;
69991;SDS011;57332;51.320;-0.580;2023-02-28T07:23:42;9.98;;;3.03;;
69991;SDS011;57332;51.320;-0.580;2023-02-28T07:26:14;9.18;;;3.13;;
69991;SDS011;57332;51.320;-0.580;2023-02-28T07:31:12;8.57;;;3.40;;
69991;SDS011;57332;51.320;-0.580;2023-02-28T07:33:40;7.05;;;2.78;;
69991;SDS011;57332;51.320;-0.580;2023-02-28T07:36:12;10.68;;;3.47;;
69991;SDS011;57332;51.320;-0.580;2023-02-28T07:38:44;6.60;;;2.83;;
69991;SDS011;57332;51.320;-0.580;2023-02-28T07:41:14;5.53;;;2.92;;
69991;SDS011;57332;51.320;-0.580;2023-02-28T07:43:42;9.95;;;3.50;;
69991;SDS011;57332;51.320;-0.580;2023-02-28T07:46:09;6.97;;;2.90;;
69991;SDS011;57332;51.320;-0.580;2023-02-28T07:48:37;8.30;;;3.22;;
69991;SDS011;57332;51.320;-0.580;2023-02-28T07:51:04;12.00;;;3.80;;
69991;SDS011;57332;51.320;-0.580;2023-02-28T07:53:31;7.15;;;3.75;;
69991;SDS011;57332;51.320;-0.580;2023-02-28T07:55:58;9.07;;;4.80;;
69991;SDS011;57332;51.320;-0.580;2023-02-28T07:58:26;10.30;;;4.32;;
69991;SDS011;57332;51.320;-0.580;2023-02-28T08:00:53;8.90;;;4.07;;
69991;SDS011;57332;51.320;-0.580;2023-02-28T08:03:20;12.23;;;4.40;;
69991;SDS011;57332;51.320;-0.580;2023-02-28T08:05:48;8.18;;;4.10;;
69991;SDS011;57332;51.320;-0.580;2023-02-28T08:08:16;9.13;;;4.38;;
69991;SDS011;57332;51.320;-0.580;2023-02-28T08:10:43;8.52;;;4.22;;
69991;SDS011;57332;51.320;-0.580;2023-02-28T08:13:10;9.15;;;4.18;;
69991;SDS011;57332;51.320;-0.580;2023-02-28T08:15:37;11.07;;;4.50;;
69991;SDS011;57332;51.320;-0.580;2023-02-28T08:18:04;11.32;;;4.28;;
69991;SDS011;57332;51.320;-0.580;2023-02-28T08:20:32;9.90;;;4.15;;
69991;SDS011;57332;51.320;-0.580;2023-02-28T08:22:59;8.85;;;3.67;;
69991;SDS011;57332;51.320;-0.580;2023-02-28T08:25:26;8.02;;;3.38;;
69991;SDS011;57332;51.320;-0.580;2023-02-28T08:27:52;10.75;;;4.20;;
69991;SDS011;57332;51.320;-0.580;2023-02-28T08:30:19;9.90;;;4.07;;
69991;SDS011;57332;51.320;-0.580;2023-02-28T08:32:47;10.93;;;4.03;;
69991;SDS011;57332;51.320;-0.580;2023-02-28T08:35:14;8.43;;;3.85;;
69991;SDS011;57332;51.320;-0.580;2023-02-28T08:37:40;9.68;;;4.50;;
69991;SDS011;57332;51.320;-0.580;2023-02-28T08:40:08;10.95;;;4.75;;
69991;SDS011;57332;51.320;-0.580;2023-02-28T08:42:35;10.40;;;4.38;;
69991;SDS011;57332;51.320;-0.580;2023-02-28T08:45:02;13.73;;;4.97;;
69991;SDS011;57332;51.320;-0.580;2023-02-28T08:47:29;11.23;;;4.45;;
69991;SDS011;57332;51.320;-0.580;2023-02-28T08:49:56;13.48;;;4.70;;
69991;SDS011;57332;51.320;-0.580;2023-02-28T08:52:23;10.73;;;4.63;;
69991;SDS011;57332;51.320;-0.580;2023-02-28T08:54:50;10.13;;;4.47;;
69991;SDS011;57332;51.320;-0.580;2023-02-28T08:57:16;11.00;;;4.63;;
69991;SDS011;57332;51.320;-0.580;2023-02-28T08:59:43;12.65;;;4.90;;
69991;SDS011;57332;51.320;-0.580;2023-02-28T09:02:12;11.10;;;5.13;;
69991;SDS011;57332;51.320;-0.580;2023-02-28T09:04:39;11.43;;;4.40;;
69991;SDS011;57332;51.320;-0.580;2023-02-28T09:07:07;11.30;;;5.00;;
69991;SDS011;57332;51.320;-0.580;2023-02-28T09:09:34;12.98;;;5.15;;
69991;SDS011;57332;51.320;-0.580;2023-02-28T09:12:00;10.80;;;4.50;;
69991;SDS011;57332;51.320;-0.580;2023-02-28T09:14:28;10.15;;;4.55;;
69991;SDS011;57332;51.320;-0.580;2023-02-28T09:16:55;8.10;;;3.78;;
69991;SDS011;57332;51.320;-0.580;2023-02-28T09:19:22;10.52;;;4.72;;
69991;SDS011;57332;51.320;-0.580;2023-02-28T09:21:49;9.82;;;4.47;;
69991;SDS011;57332;51.320;-0.580;2023-02-28T09:24:16;10.90;;;4.85;;
69991;SDS011;57332;51.320;-0.580;2023-02-28T09:26:43;12.93;;;5.45;;
69991;SDS011;57332;51.320;-0.580;2023-02-28T09:29:29;12.25;;;5.45;;
69991;SDS011;57332;51.320;-0.580;2023-02-28T09:31:56;10.15;;;4.78;;
69991;SDS011;57332;51.320;-0.580;2023-02-28T09:34:25;9.82;;;3.83;;
69991;SDS011;57332;51.320;-0.580;2023-02-28T09:36:52;8.23;;;4.15;;
69991;SDS011;57332;51.320;-0.580;2023-02-28T09:39:21;9.95;;;4.30;;
69991;SDS011;57332;51.320;-0.580;2023-02-28T09:41:50;6.18;;;3.03;;
69991;SDS011;57332;51.320;-0.580;2023-02-28T09:44:31;7.10;;;2.65;;
69991;SDS011;57332;51.320;-0.580;2023-02-28T09:47:46;7.15;;;2.90;;
69991;SDS011;57332;51.320;-0.580;2023-02-28T09:49:47;6.80;;;2.92;;
69991;SDS011;57332;51.320;-0.580;2023-02-28T09:52:32;7.00;;;3.00;;
69991;SDS011;57332;51.320;-0.580;2023-02-28T09:55:04;5.97;;;2.53;;
69991;SDS011;57332;51.320;-0.580;2023-02-28T09:57:39;4.35;;;2.08;;
69991;SDS011;57332;51.320;-0.580;2023-02-28T10:05:13;4.32;;;2.00;;
69991;SDS011;57332;51.320;-0.580;2023-02-28T10:12:45;5.60;;;1.60;;
69991;SDS011;57332;51.320;-0.580;2023-02-28T10:15:13;4.10;;;1.77;;
69991;SDS011;57332;51.320;-0.580;2023-02-28T10:17:41;3.78;;;1.80;;
69991;SDS011;57332;51.320;-0.580;2023-02-28T10:20:21;3.95;;;1.92;;
69991;SDS011;57332;51.320;-0.580;2023-02-28T10:22:53;3.17;;;1.13;;
69991;SDS011;57332;51.320;-0.580;2023-02-28T10:25:24;7.93;;;1.80;;
69991;SDS011;57332;51.320;-0.580;2023-02-28T10:27:59;4.55;;;1.45;;
69991;SDS011;57332;51.320;-0.580;2023-02-28T10:30:27;3.35;;;1.50;;
69991;SDS011;57332;51.320;-0.580;2023-02-28T10:32:54;4.68;;;1.60;;
69991;SDS011;57332;51.320;-0.580;2023-02-28T10:35:24;3.72;;;1.20;;
69991;SDS011;57332;51.320;-0.580;2023-02-28T10:37:53;2.25;;;1.17;;
69991;SDS011;57332;51.320;-0.580;2023-02-28T10:43:30;4.05;;;1.60;;
69991;SDS011;57332;51.320;-0.580;2023-02-28T10:45:37;3.55;;;1.50;;
69991;SDS011;57332;51.320;-0.580;2023-02-28T10:50:44;3.17;;;1.80;;
69991;SDS011;57332;51.320;-0.580;2023-02-28T10:55:57;3.60;;;2.20;;
69991;SDS011;57332;51.320;-0.580;2023-02-28T10:58:25;3.72;;;1.58;;
69991;SDS011;57332;51.320;-0.580;2023-02-28T11:00:53;4.75;;;1.63;;
69991;SDS011;57332;51.320;-0.580;2023-02-28T11:03:38;3.60;;;1.52;;
69991;SDS011;57332;51.320;-0.580;2023-02-28T11:06:12;4.50;;;1.65;;
69991;SDS011;57332;51.320;-0.580;2023-02-28T11:08:58;3.28;;;1.63;;
69991;SDS011;57332;51.320;-0.580;2023-02-28T11:11:27;2.28;;;1.23;;
69991;SDS011;57332;51.320;-0.580;2023-02-28T11:13:56;4.15;;;1.60;;
69991;SDS011;57332;51.320;-0.580;2023-02-28T11:16:31;2.03;;;1.10;;
69991;SDS011;57332;51.320;-0.580;2023-02-28T11:18:58;8.13;;;1.40;;
69991;SDS011;57332;51.320;-0.580;2023-02-28T11:21:28;3.92;;;1.27;;
69991;SDS011;57332;51.320;-0.580;2023-02-28T11:24:00;6.32;;;1.30;;
69991;SDS011;57332;51.320;-0.580;2023-02-28T11:26:38;2.00;;;1.38;;
69991;SDS011;57332;51.320;-0.580;2023-02-28T11:29:11;3.25;;;1.40;;
69991;SDS011;57332;51.320;-0.580;2023-02-28T11:31:38;2.13;;;0.85;;
69991;SDS011;57332;51.320;-0.580;2023-02-28T11:34:21;2.33;;;1.30;;
69991;SDS011;57332;51.320;-0.580;2023-02-28T11:36:49;2.50;;;1.17;;
69991;SDS011;57332;51.320;-0.580;2023-02-28T11:39:16;1.75;;;0.95;;
69991;SDS011;57332;51.320;-0.580;2023-02-28T11:47:12;2.13;;;1.27;;
69991;SDS011;57332;51.320;-0.580;2023-02-28T11:57:52;3.58;;;1.50;;
69991;SDS011;57332;51.320;-0.580;2023-02-28T12:05:39;3.42;;;1.58;;
69991;SDS011;57332;51.320;-0.580;2023-02-28T12:08:15;3.75;;;1.58;;
69991;SDS011;57332;51.320;-0.580;2023-02-28T12:10:59;4.13;;;1.60;;
69991;SDS011;57332;51.320;-0.580;2023-02-28T12:13:33;3.97;;;2.00;;
69991;SDS011;57332;51.320;-0.580;2023-02-28T12:29:01;4.65;;;2.13;;
69991;SDS011;57332;51.320;-0.580;2023-02-28T12:31:33;5.57;;;2.40;;
69991;SDS011;57332;51.320;-0.580;2023-02-28T12:34:10;4.18;;;1.98;;
69991;SDS011;57332;51.320;-0.580;2023-02-28T12:36:38;4.38;;;1.90;;
69991;SDS011;57332;51.320;-0.580;2023-02-28T12:39:15;4.45;;;1.80;;
69991;SDS011;57332;51.320;-0.580;2023-02-28T12:42:28;3.92;;;1.90;;
69991;SDS011;57332;51.320;-0.580;2023-02-28T12:44:35;3.47;;;1.73;;
69991;SDS011;57332;51.320;-0.580;2023-02-28T12:47:04;3.53;;;1.90;;
69991;SDS011;57332;51.320;-0.580;2023-02-28T12:49:52;3.72;;;1.73;;
69991;SDS011;57332;51.320;-0.580;2023-02-28T12:52:26;5.68;;;2.20;;
69991;SDS011;57332;51.320;-0.580;2023-02-28T12:57:49;3.55;;;1.83;;
69991;SDS011;57332;51.320;-0.580;2023-02-28T13:00:20;6.05;;;2.17;;
69991;SDS011;57332;51.320;-0.580;2023-02-28T13:10:57;4.85;;;2.17;;
69991;SDS011;57332;51.320;-0.580;2023-02-28T13:13:26;6.03;;;2.40;;
69991;SDS011;57332;51.320;-0.580;2023-02-28T13:16:14;5.60;;;2.38;;
69991;SDS011;57332;51.320;-0.580;2023-02-28T13:18:44;5.65;;;2.58;;
69991;SDS011;57332;51.320;-0.580;2023-02-28T13:28:59;4.65;;;1.80;;
69991;SDS011;57332;51.320;-0.580;2023-02-28T13:31:26;4.60;;;1.90;;
69991;SDS011;57332;51.320;-0.580;2023-02-28T13:36:25;5.00;;;2.00;;
69991;SDS011;57332;51.320;-0.580;2023-02-28T13:38:59;3.88;;;1.88;;
69991;SDS011;57332;51.320;-0.580;2023-02-28T13:46:29;3.92;;;2.00;;
69991;SDS011;57332;51.320;-0.580;2023-02-28T13:48:56;5.00;;;2.10;;
69991;SDS011;57332;51.320;-0.580;2023-02-28T13:51:44;6.13;;;2.08;;
69991;SDS011;57332;51.320;-0.580;2023-02-28T13:54:18;6.32;;;2.58;;
69991;SDS011;57332;51.320;-0.580;2023-02-28T13:56:56;4.25;;;1.85;;
69991;SDS011;57332;51.320;-0.580;2023-02-28T13:59:50;7.05;;;1.80;;
69991;SDS011;57332;51.320;-0.580;2023-02-28T14:02:34;6.05;;;2.13;;
69991;SDS011;57332;51.320;-0.580;2023-02-28T14:07:48;4.95;;;2.38;;
69991;SDS011;57332;51.320;-0.580;2023-02-28T14:15:30;3.55;;;1.92;;
69991;SDS011;57332;51.320;-0.580;2023-02-28T14:18:02;4.47;;;2.22;;
69991;SDS011;57332;51.320;-0.580;2023-02-28T14:20:31;5.13;;;2.60;;
69991;SDS011;57332;51.320;-0.580;2023-02-28T14:28:39;6.32;;;2.10;;
69991;SDS011;57332;51.320;-0.580;2023-02-28T14:33:38;5.57;;;1.95;;
69991;SDS011;57332;51.320;-0.580;2023-02-28T14:36:09;3.42;;;1.90;;
69991;SDS011;57332;51.320;-0.580;2023-02-28T14:38:56;4.18;;;2.40;;
69991;SDS011;57332;51.320;-0.580;2023-02-28T14:41:28;3.83;;;1.70;;
69991;SDS011;57332;51.320;-0.580;2023-02-28T14:43:56;4.38;;;2.05;;
69991;SDS011;57332;51.320;-0.580;2023-02-28T14:46:25;3.78;;;1.67;;
69991;SDS011;57332;51.320;-0.580;2023-02-28T14:48:54;4.35;;;1.80;;
69991;SDS011;57332;51.320;-0.580;2023-02-28T14:51:22;3.72;;;1.50;;
69991;SDS011;57332;51.320;-0.580;2023-02-28T14:53:51;2.70;;;1.48;;
69991;SDS011;57332;51.320;-0.580;2023-02-28T14:56:21;2.58;;;1.10;;
69991;SDS011;57332;51.320;-0.580;2023-02-28T14:58:55;3.33;;;1.48;;
69991;SDS011;57332;51.320;-0.580;2023-02-28T15:01:23;2.60;;;1.40;;
69991;SDS011;57332;51.320;-0.580;2023-02-28T15:04:04;3.05;;;1.60;;
69991;SDS011;57332;51.320;-0.580;2023-02-28T15:06:32;3.00;;;1.50;;
69991;SDS011;57332;51.320;-0.580;2023-02-28T15:09:18;1.92;;;1.38;;
69991;SDS011;57332;51.320;-0.580;2023-02-28T15:11:46;2.30;;;1.20;;
69991;SDS011;57332;51.320;-0.580;2023-02-28T15:14:15;4.90;;;1.55;;
69991;SDS011;57332;51.320;-0.580;2023-02-28T15:16:43;1.83;;;0.93;;
69991;SDS011;57332;51.320;-0.580;2023-02-28T15:21:45;2.70;;;1.30;;
69991;SDS011;57332;51.320;-0.580;2023-02-28T15:24:28;2.08;;;1.10;;
69991;SDS011;57332;51.320;-0.580;2023-02-28T15:26:58;1.77;;;0.90;;
69991;SDS011;57332;51.320;-0.580;2023-02-28T15:29:27;1.88;;;1.00;;
69991;SDS011;57332;51.320;-0.580;2023-02-28T15:32:04;1.85;;;1.00;;
69991;SDS011;57332;51.320;-0.580;2023-02-28T15:34:36;1.55;;;1.05;;
69991;SDS011;57332;51.320;-0.580;2023-02-28T15:37:29;2.83;;;1.13;;
69991;SDS011;57332;51.320;-0.580;2023-02-28T15:40:45;1.77;;;0.70;;
69991;SDS011;57332;51.320;-0.580;2023-02-28T15:47:59;2.40;;;1.00;;
69991;SDS011;57332;51.320;-0.580;2023-02-28T15:50:39;6.40;;;1.33;;
69991;SDS011;57332;51.320;-0.580;2023-02-28T15:53:12;3.25;;;1.50;;
69991;SDS011;57332;51.320;-0.580;2023-02-28T15:55:39;3.65;;;1.20;;
69991;SDS011;57332;51.320;-0.580;2023-02-28T15:58:08;1.45;;;1.08;;
69991;SDS011;57332;51.320;-0.580;2023-02-28T16:00:37;2.80;;;1.50;;
69991;SDS011;57332;51.320;-0.580;2023-02-28T16:03:24;4.57;;;1.23;;
69991;SDS011;57332;51.320;-0.580;2023-02-28T16:08:37;3.45;;;1.10;;
69991;SDS011;57332;51.320;-0.580;2023-02-28T16:11:04;2.13;;;1.00;;
69991;SDS011;57332;51.320;-0.580;2023-02-28T16:13:31;1.65;;;0.80;;
69991;SDS011;57332;51.320;-0.580;2023-02-28T16:15:58;2.20;;;0.93;;
69991;SDS011;57332;51.320;-0.580;2023-02-28T16:18:27;1.65;;;0.95;;
69991;SDS011;57332;51.320;-0.580;2023-02-28T16:20:54;2.58;;;0.80;;
69991;SDS011;57332;51.320;-0.580;2023-02-28T16:23:20;2.63;;;0.82;;
69991;SDS011;57332;51.320;-0.580;2023-02-28T16:25:47;2.80;;;1.15;;
69991;SDS011;57332;51.320;-0.580;2023-02-28T16:28:19;1.85;;;1.00;;
69991;SDS011;57332;51.320;-0.580;2023-02-28T16:30:47;2.22;;;1.13;;
69991;SDS011;57332;51.320;-0.580;2023-02-28T16:33:14;1.92;;;1.23;;
69991;SDS011;57332;51.320;-0.580;2023-02-28T16:35:41;2.55;;;1.50;;
69991;SDS011;57332;51.320;-0.580;2023-02-28T16:38:08;2.10;;;1.30;;
69991;SDS011;57332;51.320;-0.580;2023-02-28T16:40:35;1.92;;;1.20;;
69991;SDS011;57332;51.320;-0.580;2023-02-28T16:43:07;2.05;;;1.10;;
69991;SDS011;57332;51.320;-0.580;2023-02-28T16:45:37;2.25;;;1.20;;
69991;SDS011;57332;51.320;-0.580;2023-02-28T16:48:04;2.20;;;1.30;;
69991;SDS011;57332;51.320;-0.580;2023-02-28T16:50:31;1.75;;;1.23;;
69991;SDS011;57332;51.320;-0.580;2023-02-28T16:53:01;3.85;;;1.20;;
69991;SDS011;57332;51.320;-0.580;2023-02-28T16:55:27;1.95;;;1.20;;
69991;SDS011;57332;51.320;-0.580;2023-02-28T16:57:55;3.25;;;1.10;;
69991;SDS011;57332;51.320;-0.580;2023-02-28T17:00:22;3.13;;;1.40;;
69991;SDS011;57332;51.320;-0.580;2023-02-28T17:02:50;2.50;;;1.33;;
69991;SDS011;57332;51.320;-0.580;2023-02-28T17:05:17;3.00;;;1.88;;